Joplin Regional Airport
KJLN : rendu visible

Aérodrome :











RETROUVEZ-NOUS SUR...

 
LOGIN :

S'inscrire | Disclaimer

   EN    FR    IT 

 









Légende :    VFR   VFR Marginal   IFR   IFR Intensif   IFR Très Intensif
Visi : 
Plafond : 
>= 8 km
>= 3000ft
5 à 8 km
1000 à 3000 ft
1500m à 5 km
500 à 1000 ft
800 à 1500m
200 à 500 ft
< 800m
< 200 ft
Symboles :   Orages  Brouillard  Fortes neiges  Fortes précipitations  Vent > 20 kt






- Altitude de l'aérodrome : 981 ft
- Code IATA : JLN


KJLN - Joplin Regional

DERNIER METAR :
  • 031353Z 21010G21KT 10SM CLR 26/21 A2998 RMK AO2 SLP140 T02560206

METARs EXPIRÉS :
  • 031253Z 21014G20KT 10SM CLR 24/19 A2997 RMK AO2 SLP138 T02390194
  • 031153Z 20010KT 10SM CLR 23/19 A2998 RMK AO2 SLP141 T02280189 10228 20217 50000

TAF KJLN
Valide du 03 à 12h jusqu'au 04 à 12h UTC


031125Z 0312/0412 20009KT P6SM FEW080
FM031700 23012KT P6SM FEW250
FM040000 21008KT P6SM FEW250
FM040200 18007KT P6SM SCT250
PROB30 0408/0412 4SM TSRA BKN025CB
FIR KZKC / Amérique du Nord



MET'MAP, la Météo Aéronautique d'un coup d'oeil ! - Copyright ORBIFLY Décembre 2007 - Disclaimer

ORBIFLY MET'MAP TEAM :

Programmation & Développement : Alexandra Zaïnal
Sur une idée originale de : Baudouin d'Aumeries
Assistance à la programmation : Marc-Olivier Méhu
Soutien technique & logistique : Manuel Goepfert

Contact : metmap@orbifly.com




SOURCES & CREDITS :

   NOAA       Earth
Advisory